createdAt,value
2023-05-14T00:01:36.977Z,5.30
2023-05-14T00:04:05.569Z,6.47
2023-05-14T00:06:34.047Z,6.45
2023-05-14T00:09:05.446Z,5.68
2023-05-14T00:11:33.735Z,4.35
2023-05-14T00:14:01.971Z,6.70
2023-05-14T00:16:31.500Z,6.43
2023-05-14T00:18:59.831Z,7.13
2023-05-14T00:21:28.283Z,5.55
2023-05-14T00:23:56.678Z,4.47
2023-05-14T00:26:25.060Z,5.43
2023-05-14T00:28:53.569Z,6.22
2023-05-14T00:31:22.157Z,5.70
2023-05-14T00:33:52.966Z,7.07
2023-05-14T00:36:21.337Z,8.35
2023-05-14T00:38:52.436Z,7.25
2023-05-14T00:41:21.119Z,6.15
2023-05-14T00:43:49.403Z,4.53
2023-05-14T00:46:17.794Z,6.95
2023-05-14T00:48:49.093Z,6.65
2023-05-14T00:53:47.110Z,6.50
2023-05-14T00:56:16.470Z,4.03
2023-05-14T00:58:44.772Z,6.03
2023-05-14T01:01:15.333Z,5.70
2023-05-14T01:03:44.031Z,7.25
2023-05-14T01:06:55.264Z,8.88
2023-05-14T01:09:53.964Z,9.93
2023-05-14T01:13:08.635Z,8.13
2023-05-14T01:15:40.105Z,6.03
2023-05-14T01:18:11.630Z,5.22
2023-05-14T01:20:40.100Z,6.13
2023-05-14T01:23:09.621Z,6.60
2023-05-14T01:25:38.673Z,4.63
2023-05-14T01:28:20.432Z,7.18
2023-05-14T01:30:53.408Z,7.95
2023-05-14T01:33:26.436Z,8.43
2023-05-14T01:35:55.994Z,6.65
2023-05-14T01:38:25.340Z,6.47
2023-05-14T01:40:56.690Z,9.20
2023-05-14T01:43:26.526Z,5.30
2023-05-14T01:45:55.531Z,6.88
2023-05-14T01:48:24.040Z,6.22
2023-05-14T01:50:52.887Z,5.68
2023-05-14T01:53:21.491Z,5.35
2023-05-14T01:55:49.736Z,5.20
2023-05-14T01:58:18.055Z,4.80
2023-05-14T02:00:46.410Z,7.10
2023-05-14T02:03:14.691Z,5.43
2023-05-14T02:05:42.991Z,6.53
2023-05-14T02:08:11.593Z,5.47
2023-05-14T02:10:40.108Z,5.47
2023-05-14T02:13:09.620Z,5.57
2023-05-14T02:15:39.104Z,4.78
2023-05-14T02:18:07.684Z,4.00
2023-05-14T02:20:35.969Z,5.78
2023-05-14T02:23:04.372Z,5.70
2023-05-14T02:25:32.703Z,6.18
2023-05-14T02:28:00.939Z,5.28
2023-05-14T02:30:30.044Z,3.90
2023-05-14T02:32:58.574Z,5.75
2023-05-14T02:35:26.977Z,5.18
2023-05-14T02:37:55.347Z,4.90
2023-05-14T02:40:23.839Z,6.95
2023-05-14T02:42:52.647Z,5.95
2023-05-14T02:45:21.897Z,4.90
2023-05-14T02:47:50.212Z,6.40
2023-05-14T02:50:18.712Z,5.22
2023-05-14T02:52:46.973Z,10.73
2023-05-14T02:55:15.349Z,6.68
2023-05-14T02:57:43.574Z,6.65
2023-05-14T03:00:12.890Z,4.47
2023-05-14T03:02:43.589Z,5.15
2023-05-14T03:05:12.447Z,5.55
2023-05-14T03:07:40.704Z,6.28
2023-05-14T03:10:09.621Z,7.13
2023-05-14T03:12:37.835Z,5.25
2023-05-14T03:15:06.574Z,5.10
2023-05-14T03:17:35.543Z,5.32
2023-05-14T03:20:04.408Z,5.03
2023-05-14T03:22:32.677Z,4.25
2023-05-14T03:25:01.212Z,7.05
2023-05-14T03:27:30.243Z,5.10
2023-05-14T03:29:58.516Z,5.20
2023-05-14T03:32:26.801Z,6.47
2023-05-14T03:34:55.640Z,6.28
2023-05-14T03:37:24.214Z,5.78
2023-05-14T03:39:52.452Z,7.28
2023-05-14T03:42:20.757Z,7.65
2023-05-14T03:44:49.362Z,5.60
2023-05-14T03:47:17.606Z,4.38
2023-05-14T03:49:46.196Z,6.18
2023-05-14T03:52:16.068Z,5.25
2023-05-14T03:54:45.950Z,5.13
2023-05-14T03:57:14.385Z,6.35
2023-05-14T03:59:42.640Z,6.13
2023-05-14T04:02:10.899Z,5.88
2023-05-14T04:04:39.302Z,6.15
2023-05-14T04:07:08.856Z,4.63
2023-05-14T04:09:41.733Z,6.47
2023-05-14T04:12:10.354Z,5.85
2023-05-14T04:14:38.635Z,6.85
2023-05-14T04:17:06.943Z,5.72
2023-05-14T04:19:35.341Z,5.88
2023-05-14T04:22:05.278Z,5.00
2023-05-14T04:24:33.516Z,5.30
2023-05-14T04:27:01.760Z,4.68
2023-05-14T04:29:30.277Z,4.60
2023-05-14T04:31:58.637Z,5.00
2023-05-14T04:34:26.965Z,8.95
2023-05-14T04:36:58.712Z,5.22
2023-05-14T04:39:26.941Z,7.25
2023-05-14T04:41:55.376Z,5.43
2023-05-14T04:44:23.599Z,5.43
2023-05-14T04:46:51.857Z,4.20
2023-05-14T04:49:20.944Z,5.00
2023-05-14T04:51:49.419Z,5.47
2023-05-14T04:54:17.774Z,11.98
2023-05-14T04:56:47.671Z,4.28
2023-05-14T04:59:16.466Z,4.20
2023-05-14T05:01:45.845Z,4.00
2023-05-14T05:04:14.480Z,6.57
2023-05-14T05:06:42.754Z,7.15
2023-05-14T05:09:10.962Z,7.63
2023-05-14T05:11:39.234Z,6.40
2023-05-14T05:14:07.533Z,4.43
2023-05-14T05:16:36.016Z,7.13
2023-05-14T05:19:04.550Z,7.10
2023-05-14T05:21:32.969Z,5.72
2023-05-14T05:24:03.437Z,5.13
2023-05-14T05:26:36.666Z,5.30
2023-05-14T05:29:06.343Z,4.95
2023-05-14T05:31:59.347Z,6.70
2023-05-14T05:34:28.053Z,4.90
2023-05-14T05:36:56.286Z,7.38
2023-05-14T05:39:25.087Z,4.93
2023-05-14T05:41:54.578Z,6.50
2023-05-14T05:44:22.890Z,6.03
2023-05-14T05:46:51.248Z,9.52
2023-05-14T05:49:19.542Z,5.50
2023-05-14T05:51:47.766Z,6.53
2023-05-14T05:54:16.004Z,5.60
2023-05-14T05:56:45.534Z,5.45
2023-05-14T05:59:13.762Z,6.10
2023-05-14T06:01:43.455Z,6.50
2023-05-14T06:04:11.698Z,4.70
2023-05-14T06:06:39.910Z,5.43
2023-05-14T06:09:10.439Z,7.55
2023-05-14T06:11:38.684Z,6.28
2023-05-14T06:14:06.944Z,5.63
2023-05-14T06:16:35.308Z,6.93
2023-05-14T06:19:03.758Z,8.05
2023-05-14T06:21:32.166Z,8.18
2023-05-14T06:24:00.594Z,6.70
2023-05-14T06:26:28.864Z,6.03
2023-05-14T06:28:59.123Z,5.72
2023-05-14T06:31:27.518Z,7.83
2023-05-14T06:33:55.780Z,5.90
2023-05-14T06:36:24.043Z,6.03
2023-05-14T06:38:52.367Z,7.47
2023-05-14T06:41:21.211Z,7.25
2023-05-14T06:43:49.530Z,9.57
2023-05-14T06:46:22.687Z,6.70
2023-05-14T06:48:50.943Z,7.65
2023-05-14T06:51:19.294Z,9.48
2023-05-14T06:53:48.801Z,7.43
2023-05-14T06:56:17.050Z,6.35
2023-05-14T06:58:45.647Z,6.55
2023-05-14T07:01:14.022Z,10.48
2023-05-14T07:03:43.533Z,7.38
2023-05-14T07:06:36.920Z,7.93
2023-05-14T07:09:07.045Z,6.63
2023-05-14T07:11:35.571Z,8.35
2023-05-14T07:14:03.826Z,6.65
2023-05-14T07:16:32.199Z,5.18
2023-05-14T07:19:11.732Z,6.50
2023-05-14T07:21:40.128Z,5.45
2023-05-14T07:24:14.671Z,5.85
2023-05-14T07:26:43.010Z,6.57
2023-05-14T07:29:11.352Z,5.82
2023-05-14T07:31:39.865Z,6.03
2023-05-14T07:34:08.765Z,4.97
2023-05-14T07:36:37.304Z,4.40
2023-05-14T07:39:05.571Z,4.03
2023-05-14T07:41:35.003Z,4.32
2023-05-14T07:44:07.269Z,4.38
2023-05-14T07:46:38.404Z,5.05
2023-05-14T07:49:10.624Z,4.95
2023-05-14T07:51:42.139Z,4.63
2023-05-14T07:54:11.291Z,4.35
2023-05-14T07:56:39.576Z,5.63
2023-05-14T07:59:17.131Z,5.85
2023-05-14T08:01:45.522Z,4.30
2023-05-14T08:04:16.124Z,3.80
2023-05-14T08:06:52.326Z,3.17
2023-05-14T08:09:20.595Z,3.83
2023-05-14T08:11:48.858Z,3.60
2023-05-14T08:14:17.069Z,4.57
2023-05-14T08:16:47.779Z,4.65
2023-05-14T08:19:16.594Z,3.45
2023-05-14T08:21:45.287Z,3.63
2023-05-14T08:24:14.164Z,4.28
2023-05-14T08:26:42.468Z,3.85
2023-05-14T08:29:11.520Z,3.28
2023-05-14T08:31:41.041Z,4.38
2023-05-14T08:34:09.439Z,3.67
2023-05-14T08:36:38.729Z,4.32
2023-05-14T08:39:09.617Z,4.53
2023-05-14T08:44:11.257Z,3.72
2023-05-14T08:46:40.737Z,2.70
2023-05-14T08:49:40.751Z,3.03
2023-05-14T08:52:12.537Z,2.92
2023-05-14T08:54:41.154Z,3.53
2023-05-14T08:57:10.678Z,2.92
2023-05-14T08:59:39.047Z,2.78
2023-05-14T09:02:07.859Z,2.63
2023-05-14T09:04:43.282Z,2.55
2023-05-14T09:07:11.725Z,2.53
2023-05-14T09:09:40.540Z,2.22
2023-05-14T09:12:09.877Z,2.92
2023-05-14T09:14:38.603Z,2.42
2023-05-14T09:17:06.957Z,2.17
2023-05-14T09:19:38.049Z,2.00
2023-05-14T09:22:11.689Z,2.70
2023-05-14T09:24:40.213Z,2.70
2023-05-14T09:27:10.928Z,3.35
2023-05-14T09:32:11.755Z,2.60
2023-05-14T09:34:41.141Z,3.33
2023-05-14T09:37:10.015Z,2.13
2023-05-14T09:39:39.714Z,2.28
2023-05-14T09:42:08.326Z,3.15
2023-05-14T09:44:38.002Z,2.58
2023-05-14T09:47:06.649Z,2.73
2023-05-14T09:49:35.150Z,3.10
2023-05-14T09:52:03.692Z,2.47
2023-05-14T09:54:33.233Z,3.47
2023-05-14T09:57:01.841Z,2.10
2023-05-14T09:59:33.064Z,2.15
2023-05-14T10:02:01.541Z,2.20
2023-05-14T10:04:29.887Z,2.83
2023-05-14T10:06:58.499Z,3.63
2023-05-14T10:09:29.917Z,2.22
2023-05-14T10:12:01.256Z,3.88
2023-05-14T10:14:41.348Z,1.90
2023-05-14T10:17:18.110Z,1.73
2023-05-14T10:19:54.653Z,2.72
2023-05-14T10:22:33.368Z,2.38
2023-05-14T10:25:03.984Z,2.55
2023-05-14T10:27:33.321Z,2.40
2023-05-14T10:30:04.951Z,2.15
2023-05-14T10:32:33.524Z,2.10
2023-05-14T10:35:02.674Z,2.20
2023-05-14T10:37:31.140Z,2.13
2023-05-14T10:40:06.471Z,2.58
2023-05-14T10:42:40.563Z,2.00
2023-05-14T10:45:15.320Z,1.85
2023-05-14T10:47:46.556Z,1.73
2023-05-14T10:50:16.258Z,2.08
2023-05-14T10:52:48.281Z,2.03
2023-05-14T10:55:17.292Z,1.63
2023-05-14T10:57:47.092Z,1.23
2023-05-14T11:00:16.197Z,1.77
2023-05-14T11:02:45.136Z,2.27
2023-05-14T11:05:17.823Z,2.20
2023-05-14T11:07:49.403Z,1.48
2023-05-14T11:10:25.764Z,4.97
2023-05-14T11:12:54.367Z,2.13
2023-05-14T11:15:26.190Z,2.72
2023-05-14T11:17:55.609Z,1.65
2023-05-14T11:20:24.226Z,1.65
2023-05-14T11:22:52.722Z,1.90
2023-05-14T11:25:22.785Z,2.50
2023-05-14T11:27:51.414Z,2.28
2023-05-14T11:30:21.443Z,1.20
2023-05-14T11:32:50.987Z,1.40
2023-05-14T11:35:19.541Z,3.13
2023-05-14T11:37:52.507Z,1.85
2023-05-14T11:40:21.320Z,1.63
2023-05-14T11:42:53.316Z,2.13
2023-05-14T11:45:26.528Z,1.33
2023-05-14T11:47:54.982Z,2.33
2023-05-14T11:50:24.052Z,2.05
2023-05-14T11:52:57.483Z,2.38
2023-05-14T11:55:26.004Z,1.67
2023-05-14T11:57:54.486Z,3.45
2023-05-14T12:00:24.568Z,2.25
2023-05-14T12:02:53.263Z,1.58
2023-05-14T12:05:21.913Z,2.05
2023-05-14T12:07:50.164Z,1.50
2023-05-14T12:10:18.447Z,2.40
2023-05-14T12:12:48.801Z,2.03
2023-05-14T12:15:17.507Z,1.95
2023-05-14T12:17:52.147Z,1.30
2023-05-14T12:20:20.685Z,1.77
2023-05-14T12:22:48.973Z,1.58
2023-05-14T12:25:17.309Z,1.38
2023-05-14T12:27:45.824Z,3.20
2023-05-14T12:32:46.453Z,2.75
2023-05-14T12:35:14.825Z,3.05
2023-05-14T12:37:43.211Z,1.33
2023-05-14T12:40:11.928Z,2.05
2023-05-14T12:42:40.236Z,2.42
2023-05-14T12:45:09.050Z,1.92
2023-05-14T12:47:37.581Z,1.80
2023-05-14T12:50:07.747Z,1.67
2023-05-14T12:52:39.711Z,1.33
2023-05-14T12:55:11.886Z,4.20
2023-05-14T12:57:40.235Z,2.00
2023-05-14T13:00:13.895Z,1.25
2023-05-14T13:02:43.855Z,2.45
2023-05-14T13:05:12.857Z,2.40
2023-05-14T13:07:44.187Z,1.63
2023-05-14T13:10:12.676Z,1.45
2023-05-14T13:12:41.061Z,1.20
2023-05-14T13:15:10.052Z,2.22
2023-05-14T13:17:38.312Z,2.13
2023-05-14T13:20:07.667Z,2.40
2023-05-14T13:22:36.143Z,1.75
2023-05-14T13:25:04.969Z,2.80
2023-05-14T13:27:33.778Z,4.27
2023-05-14T13:30:02.040Z,1.33
2023-05-14T13:32:30.744Z,1.33
2023-05-14T13:34:59.111Z,1.30
2023-05-14T13:37:27.354Z,1.88
2023-05-14T13:39:55.680Z,1.10
2023-05-14T13:42:23.931Z,1.98
2023-05-14T13:44:53.635Z,1.40
2023-05-14T13:47:21.990Z,1.55
2023-05-14T13:49:50.457Z,2.15
2023-05-14T13:52:18.814Z,2.20
2023-05-14T13:54:47.262Z,2.58
2023-05-14T13:57:15.597Z,4.43
2023-05-14T13:59:43.858Z,3.90
2023-05-14T14:02:12.186Z,1.35
2023-05-14T14:04:40.544Z,1.98
2023-05-14T14:07:09.088Z,1.50
2023-05-14T14:09:37.506Z,1.60
2023-05-14T14:12:06.256Z,1.85
2023-05-14T14:14:34.602Z,1.33
2023-05-14T14:17:02.922Z,1.55
2023-05-14T14:19:31.280Z,1.58
2023-05-14T14:21:59.558Z,1.88
2023-05-14T14:24:27.773Z,1.30
2023-05-14T14:27:02.418Z,1.60
2023-05-14T14:29:31.137Z,1.92
2023-05-14T14:31:59.838Z,1.53
2023-05-14T14:34:28.297Z,3.72
2023-05-14T14:36:56.588Z,2.08
2023-05-14T14:39:25.473Z,3.15
2023-05-14T14:41:53.713Z,5.18
2023-05-14T14:44:22.187Z,2.03
2023-05-14T14:46:51.502Z,6.70
2023-05-14T14:49:19.889Z,2.00
2023-05-14T14:51:48.173Z,2.65
2023-05-14T14:54:16.752Z,3.80
2023-05-14T14:56:45.885Z,2.17
2023-05-14T14:59:14.117Z,2.42
2023-05-14T15:01:42.555Z,2.38
2023-05-14T15:04:10.835Z,2.03
2023-05-14T15:06:39.096Z,4.43
2023-05-14T15:09:07.779Z,2.47
2023-05-14T15:11:37.405Z,2.00
2023-05-14T15:16:33.817Z,2.22
2023-05-14T15:19:02.139Z,2.05
2023-05-14T15:21:30.461Z,1.50
2023-05-14T15:24:02.062Z,2.47
2023-05-14T15:26:30.373Z,1.60
2023-05-14T15:28:59.175Z,2.58
2023-05-14T15:31:27.469Z,1.60
2023-05-14T15:33:56.022Z,4.75
2023-05-14T15:36:24.471Z,1.30
2023-05-14T15:38:52.730Z,1.63
2023-05-14T15:41:21.093Z,2.47
2023-05-14T15:43:50.604Z,1.30
2023-05-14T15:46:18.957Z,2.00
2023-05-14T15:48:47.253Z,1.50
2023-05-14T15:53:58.621Z,3.45
2023-05-14T15:56:27.029Z,1.80
2023-05-14T15:58:55.354Z,2.10
2023-05-14T16:01:23.745Z,1.80
2023-05-14T16:03:53.039Z,2.38
2023-05-14T16:06:21.532Z,2.90
2023-05-14T16:08:49.842Z,2.78
2023-05-14T16:11:19.657Z,2.78
2023-05-14T16:13:48.296Z,1.40
2023-05-14T16:16:16.772Z,2.58
2023-05-14T16:18:45.237Z,1.88
2023-05-14T16:21:13.544Z,1.60
2023-05-14T16:23:41.770Z,3.58
2023-05-14T16:26:10.011Z,1.55
2023-05-14T16:28:41.275Z,2.53
2023-05-14T16:31:09.630Z,2.30
2023-05-14T16:33:38.067Z,3.47
2023-05-14T16:36:06.434Z,2.58
2023-05-14T16:38:38.559Z,3.95
2023-05-14T16:41:09.887Z,1.70
2023-05-14T16:43:38.205Z,2.78
2023-05-14T16:46:06.645Z,2.05
2023-05-14T16:48:34.954Z,2.53
2023-05-14T16:51:03.208Z,2.30
2023-05-14T16:53:31.545Z,2.03
2023-05-14T16:55:59.798Z,2.53
2023-05-14T16:58:28.377Z,1.40
2023-05-14T17:00:56.696Z,1.60
2023-05-14T17:03:25.002Z,1.98
2023-05-14T17:05:54.259Z,2.47
2023-05-14T17:08:22.477Z,1.70
2023-05-14T17:10:50.700Z,1.92
2023-05-14T17:13:19.045Z,3.45
2023-05-14T17:15:48.713Z,2.78
2023-05-14T17:18:17.111Z,2.33
2023-05-14T17:20:45.503Z,2.53
2023-05-14T17:23:13.811Z,2.20
2023-05-14T17:25:42.369Z,1.90
2023-05-14T17:28:11.645Z,3.95
2023-05-14T17:30:40.909Z,2.58
2023-05-14T17:33:09.454Z,2.70
2023-05-14T17:35:37.907Z,2.83
2023-05-14T17:38:07.316Z,2.72
2023-05-14T17:40:35.560Z,1.88
2023-05-14T17:43:03.876Z,2.42
2023-05-14T17:45:42.715Z,3.67
2023-05-14T17:48:20.643Z,2.90
2023-05-14T17:50:49.042Z,1.95
2023-05-14T17:53:17.449Z,2.20
2023-05-14T17:55:45.800Z,2.00
2023-05-14T17:58:18.701Z,2.42
2023-05-14T18:00:47.143Z,2.63
2023-05-14T18:03:15.650Z,3.63
2023-05-14T18:05:44.085Z,1.70
2023-05-14T18:08:12.872Z,2.50
2023-05-14T18:10:41.166Z,2.58
2023-05-14T18:13:09.399Z,2.63
2023-05-14T18:15:38.627Z,2.85
2023-05-14T18:18:07.210Z,2.20
2023-05-14T18:20:36.256Z,2.72
2023-05-14T18:23:04.541Z,2.33
2023-05-14T18:25:32.883Z,1.80
2023-05-14T18:28:01.112Z,3.85
2023-05-14T18:30:29.398Z,2.58
2023-05-14T18:32:58.820Z,2.95
2023-05-14T18:35:27.895Z,3.22
2023-05-14T18:37:56.371Z,2.97
2023-05-14T18:40:24.605Z,5.90
2023-05-14T18:42:52.918Z,3.38
2023-05-14T18:45:21.908Z,4.25
2023-05-14T18:47:51.512Z,2.50
2023-05-14T18:50:20.340Z,5.18
2023-05-14T18:52:48.780Z,3.53
2023-05-14T18:55:17.215Z,5.10
2023-05-14T18:57:47.113Z,8.40
2023-05-14T19:00:15.959Z,3.42
2023-05-14T19:02:44.362Z,2.85
2023-05-14T19:05:12.711Z,4.43
2023-05-14T19:07:41.725Z,2.97
2023-05-14T19:10:10.841Z,3.25
2023-05-14T19:12:39.096Z,2.78
2023-05-14T19:15:07.930Z,2.58
2023-05-14T19:17:37.357Z,2.15
2023-05-14T19:20:07.960Z,3.58
2023-05-14T19:22:36.321Z,2.40
2023-05-14T19:25:06.884Z,2.65
2023-05-14T19:27:38.685Z,2.50
2023-05-14T19:30:08.352Z,4.05
2023-05-14T19:32:37.955Z,3.78
2023-05-14T19:35:07.222Z,2.58
2023-05-14T19:37:35.949Z,3.70
2023-05-14T19:40:05.095Z,2.83
2023-05-14T19:42:33.999Z,2.65
2023-05-14T19:45:03.921Z,4.45
2023-05-14T19:47:33.061Z,2.65
2023-05-14T19:50:05.106Z,3.53
2023-05-14T19:52:33.847Z,3.53
2023-05-14T19:55:02.182Z,3.90
2023-05-14T19:57:31.390Z,2.42
2023-05-14T20:00:03.796Z,3.83
2023-05-14T20:02:40.936Z,5.38
2023-05-14T20:05:12.816Z,5.22
2023-05-14T20:07:42.329Z,5.43
2023-05-14T20:10:11.586Z,6.03
2023-05-14T20:12:40.112Z,5.85
2023-05-14T20:15:10.058Z,3.55
2023-05-14T20:17:39.759Z,3.22
2023-05-14T20:20:10.002Z,6.85
2023-05-14T20:22:40.109Z,4.47
2023-05-14T20:25:10.142Z,4.35
2023-05-14T20:27:39.347Z,3.70
2023-05-14T20:30:12.768Z,5.00
2023-05-14T20:32:41.079Z,4.88
2023-05-14T20:35:09.559Z,2.83
2023-05-14T20:37:38.016Z,3.97
2023-05-14T20:40:09.891Z,3.05
2023-05-14T20:42:39.015Z,5.40
2023-05-14T20:45:08.067Z,3.65
2023-05-14T20:47:36.319Z,4.78
2023-05-14T20:50:05.265Z,2.42
2023-05-14T20:52:33.675Z,2.97
2023-05-14T20:55:02.497Z,2.50
2023-05-14T20:57:31.482Z,3.08
2023-05-14T21:00:00.173Z,3.88
2023-05-14T21:02:28.671Z,3.58
2023-05-14T21:04:57.150Z,3.22
2023-05-14T21:07:27.102Z,4.38
2023-05-14T21:09:56.606Z,3.90
2023-05-14T21:12:25.007Z,3.33
2023-05-14T21:14:53.312Z,3.38
2023-05-14T21:17:22.163Z,3.38
2023-05-14T21:19:51.022Z,3.80
2023-05-14T21:22:19.375Z,3.40
2023-05-14T21:24:50.170Z,2.67
2023-05-14T21:29:47.212Z,2.22
2023-05-14T21:32:20.070Z,2.72
2023-05-14T21:34:48.405Z,2.95
2023-05-14T21:37:16.687Z,3.22
2023-05-14T21:39:44.962Z,3.67
2023-05-14T21:42:13.252Z,3.47
2023-05-14T21:44:41.581Z,2.63
2023-05-14T21:47:11.408Z,4.20
2023-05-14T21:49:39.648Z,3.63
2023-05-14T21:52:08.473Z,4.50
2023-05-14T21:54:36.702Z,4.88
2023-05-14T21:57:05.318Z,3.70
2023-05-14T21:59:34.352Z,3.65
2023-05-14T22:02:06.888Z,2.45
2023-05-14T22:04:35.788Z,2.90
2023-05-14T22:07:04.282Z,2.58
2023-05-14T22:09:32.555Z,3.60
2023-05-14T22:12:00.768Z,4.10
2023-05-14T22:14:29.351Z,4.10
2023-05-14T22:16:57.596Z,3.75
2023-05-14T22:19:26.834Z,3.35
2023-05-14T22:21:55.265Z,4.88
2023-05-14T22:24:26.418Z,3.60
2023-05-14T22:26:55.056Z,4.72
2023-05-14T22:29:23.323Z,3.47
2023-05-14T22:31:51.600Z,3.88
2023-05-14T22:34:19.898Z,3.90
2023-05-14T22:36:48.128Z,2.92
2023-05-14T22:39:16.387Z,4.57
2023-05-14T22:41:44.626Z,3.30
2023-05-14T22:44:12.831Z,3.60
2023-05-14T22:46:41.107Z,7.90
2023-05-14T22:49:09.358Z,4.82
2023-05-14T22:51:37.818Z,3.33
2023-05-14T22:54:06.120Z,2.97
2023-05-14T22:56:34.396Z,4.23
2023-05-14T22:59:02.629Z,5.13
2023-05-14T23:01:31.853Z,4.90
2023-05-14T23:04:00.222Z,3.25
2023-05-14T23:06:29.738Z,3.92
2023-05-14T23:08:58.073Z,4.05
2023-05-14T23:11:27.001Z,3.83
2023-05-14T23:13:55.675Z,2.50
2023-05-14T23:16:24.066Z,3.50
2023-05-14T23:18:53.118Z,2.42
2023-05-14T23:21:21.539Z,5.30
2023-05-14T23:23:49.805Z,3.30
2023-05-14T23:26:18.024Z,3.22
2023-05-14T23:28:47.322Z,2.95
2023-05-14T23:31:15.625Z,3.15
2023-05-14T23:33:44.649Z,5.95
2023-05-14T23:36:12.952Z,3.33
2023-05-14T23:38:41.248Z,2.80
2023-05-14T23:41:09.479Z,3.25
2023-05-14T23:43:37.915Z,3.80
2023-05-14T23:46:06.273Z,4.28
2023-05-14T23:48:34.516Z,3.70
2023-05-14T23:51:02.740Z,5.15
2023-05-14T23:53:31.028Z,4.57
2023-05-14T23:55:59.272Z,3.30
2023-05-14T23:58:29.836Z,3.88
